sensor_id;sensor_type;location;lat;lon;timestamp;pressure;altitude;pressure_sealevel;temperature;humidity
57074;BME280;69035;54.392;18.574;2023-04-15T00:01:16;100922.25;;;10.98;73.24
57074;BME280;69035;54.392;18.574;2023-04-15T00:03:46;100913.44;;;11.03;73.72
57074;BME280;69035;54.392;18.574;2023-04-15T00:06:15;100916.91;;;11.05;73.90
57074;BME280;69035;54.392;18.574;2023-04-15T00:08:44;100914.28;;;11.05;73.25
57074;BME280;69035;54.392;18.574;2023-04-15T00:11:14;100916.03;;;11.07;72.70
57074;BME280;69035;54.392;18.574;2023-04-15T00:13:44;100920.44;;;11.07;72.99
57074;BME280;69035;54.392;18.574;2023-04-15T00:16:13;100921.25;;;11.10;73.09
57074;BME280;69035;54.392;18.574;2023-04-15T00:18:42;100924.72;;;11.14;72.32
57074;BME280;69035;54.392;18.574;2023-04-15T00:21:12;100921.13;;;11.20;73.44
57074;BME280;69035;54.392;18.574;2023-04-15T00:23:41;100916.72;;;11.25;72.77
57074;BME280;69035;54.392;18.574;2023-04-15T00:26:10;100913.19;;;11.26;72.38
57074;BME280;69035;54.392;18.574;2023-04-15T00:28:41;100907.09;;;11.21;71.87
57074;BME280;69035;54.392;18.574;2023-04-15T00:31:11;100907.97;;;11.24;72.31
57074;BME280;69035;54.392;18.574;2023-04-15T00:33:40;100909.72;;;11.21;72.88
57074;BME280;69035;54.392;18.574;2023-04-15T00:36:09;100910.59;;;11.23;72.47
57074;BME280;69035;54.392;18.574;2023-04-15T00:38:38;100914.19;;;11.17;72.33
57074;BME280;69035;54.392;18.574;2023-04-15T00:41:07;100915.06;;;11.14;72.84
57074;BME280;69035;54.392;18.574;2023-04-15T00:43:36;100917.78;;;11.08;72.28
57074;BME280;69035;54.392;18.574;2023-04-15T00:46:08;100906.41;;;11.03;72.94
57074;BME280;69035;54.392;18.574;2023-04-15T00:48:37;100915.19;;;11.02;72.16
57074;BME280;69035;54.392;18.574;2023-04-15T00:51:06;100911.69;;;11.03;72.99
57074;BME280;69035;54.392;18.574;2023-04-15T00:53:35;100914.31;;;11.03;72.99
57074;BME280;69035;54.392;18.574;2023-04-15T00:56:05;100909.94;;;11.01;72.98
57074;BME280;69035;54.392;18.574;2023-04-15T00:58:34;100912.56;;;11.02;72.19
57074;BME280;69035;54.392;18.574;2023-04-15T01:01:03;100923.06;;;11.02;72.85
57074;BME280;69035;54.392;18.574;2023-04-15T01:03:34;100909.94;;;11.01;72.87
57074;BME280;69035;54.392;18.574;2023-04-15T01:06:04;100914.41;;;10.94;72.80
57074;BME280;69035;54.392;18.574;2023-04-15T01:08:32;100919.69;;;10.91;72.19
57074;BME280;69035;54.392;18.574;2023-04-15T01:11:02;100912.69;;;10.90;72.57
57074;BME280;69035;54.392;18.574;2023-04-15T01:13:32;100910.91;;;10.90;72.60
57074;BME280;69035;54.392;18.574;2023-04-15T01:16:01;100914.44;;;10.92;72.26
57074;BME280;69035;54.392;18.574;2023-04-15T01:18:30;100916.09;;;10.96;72.34
57074;BME280;69035;54.392;18.574;2023-04-15T01:21:01;100912.63;;;10.96;72.99
57074;BME280;69035;54.392;18.574;2023-04-15T01:23:30;100914.44;;;10.91;72.47
57074;BME280;69035;54.392;18.574;2023-04-15T01:26:01;100914.47;;;10.89;72.58
57074;BME280;69035;54.392;18.574;2023-04-15T01:28:30;100924.06;;;10.90;72.60
57074;BME280;69035;54.392;18.574;2023-04-15T01:31:06;100922.34;;;10.89;73.57
57074;BME280;69035;54.392;18.574;2023-04-15T01:33:38;100921.47;;;10.89;72.85
57074;BME280;69035;54.392;18.574;2023-04-15T01:36:09;100924.09;;;10.89;73.42
57074;BME280;69035;54.392;18.574;2023-04-15T01:38:37;100920.53;;;10.93;72.19
57074;BME280;69035;54.392;18.574;2023-04-15T01:41:08;100924.91;;;10.95;72.02
57074;BME280;69035;54.392;18.574;2023-04-15T01:43:37;100921.41;;;10.93;72.17
57074;BME280;69035;54.392;18.574;2023-04-15T01:46:08;100929.28;;;10.95;72.53
57074;BME280;69035;54.392;18.574;2023-04-15T01:48:37;100925.81;;;10.91;72.81
57074;BME280;69035;54.392;18.574;2023-04-15T01:51:05;100922.34;;;10.91;73.16
57074;BME280;69035;54.392;18.574;2023-04-15T01:53:34;100925.84;;;10.88;72.47
57074;BME280;69035;54.392;18.574;2023-04-15T01:56:03;100927.59;;;10.86;72.88
57074;BME280;69035;54.392;18.574;2023-04-15T01:58:34;100922.34;;;10.88;72.85
57074;BME280;69035;54.392;18.574;2023-04-15T02:01:03;100928.47;;;10.88;72.41
57074;BME280;69035;54.392;18.574;2023-04-15T02:03:33;100925.88;;;10.85;73.18
57074;BME280;69035;54.392;18.574;2023-04-15T02:06:02;100906.66;;;10.77;72.31
57074;BME280;69035;54.392;18.574;2023-04-15T02:08:32;100929.34;;;10.89;72.93
57074;BME280;69035;54.392;18.574;2023-04-15T02:11:01;100925.84;;;10.88;72.40
57074;BME280;69035;54.392;18.574;2023-04-15T02:13:31;100925.88;;;10.87;72.41
57074;BME280;69035;54.392;18.574;2023-04-15T02:16:02;100926.75;;;10.84;72.23
57074;BME280;69035;54.392;18.574;2023-04-15T02:18:31;100922.38;;;10.85;72.85
57074;BME280;69035;54.392;18.574;2023-04-15T02:21:00;100918.00;;;10.85;72.17
57074;BME280;69035;54.392;18.574;2023-04-15T02:23:28;100920.63;;;10.87;72.75
57074;BME280;69035;54.392;18.574;2023-04-15T02:25:57;100910.94;;;10.87;71.75
57074;BME280;69035;54.392;18.574;2023-04-15T02:28:25;100920.53;;;10.93;72.24
57074;BME280;69035;54.392;18.574;2023-04-15T02:30:55;100920.50;;;10.97;71.19
57074;BME280;69035;54.392;18.574;2023-04-15T02:33:26;100919.63;;;10.98;71.49
57074;BME280;69035;54.392;18.574;2023-04-15T02:35:55;100917.88;;;10.96;71.57
57074;BME280;69035;54.392;18.574;2023-04-15T02:38:25;100917.88;;;10.96;71.67
57074;BME280;69035;54.392;18.574;2023-04-15T02:40:54;100915.28;;;10.94;71.44
57074;BME280;69035;54.392;18.574;2023-04-15T02:43:23;100923.13;;;10.97;72.17
57074;BME280;69035;54.392;18.574;2023-04-15T02:45:52;100924.84;;;11.00;71.60
57074;BME280;69035;54.392;18.574;2023-04-15T02:48:21;100923.97;;;11.01;71.51
57074;BME280;69035;54.392;18.574;2023-04-15T02:50:51;100917.03;;;10.94;71.50
57074;BME280;69035;54.392;18.574;2023-04-15T02:53:19;100922.25;;;10.98;72.03
57074;BME280;69035;54.392;18.574;2023-04-15T02:55:49;100909.19;;;10.86;71.49
57074;BME280;69035;54.392;18.574;2023-04-15T02:58:17;100922.28;;;10.94;72.26
57074;BME280;69035;54.392;18.574;2023-04-15T03:05:19;100928.53;;;10.84;71.32
57074;BME280;69035;54.392;18.574;2023-04-15T03:07:51;100919.75;;;10.83;72.27
57074;BME280;69035;54.392;18.574;2023-04-15T03:10:20;100930.25;;;10.86;72.18
57074;BME280;69035;54.392;18.574;2023-04-15T03:12:49;100924.97;;;10.89;71.34
57074;BME280;69035;54.392;18.574;2023-04-15T03:15:20;100928.44;;;10.93;71.78
57074;BME280;69035;54.392;18.574;2023-04-15T03:17:52;100925.84;;;10.90;71.13
57074;BME280;69035;54.392;18.574;2023-04-15T03:20:21;100932.84;;;10.88;71.86
57074;BME280;69035;54.392;18.574;2023-04-15T03:22:51;100931.13;;;10.87;71.57
57074;BME280;69035;54.392;18.574;2023-04-15T03:25:22;100935.50;;;10.89;71.06
57074;BME280;69035;54.392;18.574;2023-04-15T03:27:52;100933.78;;;10.85;71.49
57074;BME280;69035;54.392;18.574;2023-04-15T03:30:20;100935.47;;;10.88;71.97
57074;BME280;69035;54.392;18.574;2023-04-15T03:32:50;100936.38;;;10.87;71.12
57074;BME280;69035;54.392;18.574;2023-04-15T03:35:19;100934.63;;;10.87;71.94
57074;BME280;69035;54.392;18.574;2023-04-15T03:37:48;100933.75;;;10.87;71.65
57074;BME280;69035;54.392;18.574;2023-04-15T03:40:20;100938.09;;;10.88;71.61
57074;BME280;69035;54.392;18.574;2023-04-15T03:42:49;100934.59;;;10.89;71.54
57074;BME280;69035;54.392;18.574;2023-04-15T03:45:18;100936.38;;;10.87;72.08
57074;BME280;69035;54.392;18.574;2023-04-15T03:47:46;100939.91;;;10.84;71.02
57074;BME280;69035;54.392;18.574;2023-04-15T03:50:15;100932.91;;;10.83;71.52
57074;BME280;69035;54.392;18.574;2023-04-15T03:52:45;100935.50;;;10.85;71.60
57074;BME280;69035;54.392;18.574;2023-04-15T03:55:17;100940.78;;;10.83;71.39
57074;BME280;69035;54.392;18.574;2023-04-15T03:57:46;100930.25;;;10.85;71.69
57074;BME280;69035;54.392;18.574;2023-04-15T04:00:14;100938.13;;;10.86;71.58
57074;BME280;69035;54.392;18.574;2023-04-15T04:02:44;100940.78;;;10.83;72.02
57074;BME280;69035;54.392;18.574;2023-04-15T04:05:13;100940.84;;;10.77;71.67
57074;BME280;69035;54.392;18.574;2023-04-15T04:07:42;100941.72;;;10.80;71.19
57074;BME280;69035;54.392;18.574;2023-04-15T04:10:10;100941.72;;;10.80;71.69
57074;BME280;69035;54.392;18.574;2023-04-15T04:12:41;100930.41;;;10.71;71.51
57074;BME280;69035;54.392;18.574;2023-04-15T04:15:10;100947.81;;;10.81;71.29
57074;BME280;69035;54.392;18.574;2023-04-15T04:17:39;100943.44;;;10.80;72.10
57074;BME280;69035;54.392;18.574;2023-04-15T04:20:08;100942.59;;;10.79;72.26
57074;BME280;69035;54.392;18.574;2023-04-15T04:22:37;100943.47;;;10.78;72.33
57074;BME280;69035;54.392;18.574;2023-04-15T04:25:08;100945.16;;;10.86;72.40
57074;BME280;69035;54.392;18.574;2023-04-15T04:27:38;100946.94;;;10.84;71.91
57074;BME280;69035;54.392;18.574;2023-04-15T04:30:09;100937.31;;;10.79;72.18
57074;BME280;69035;54.392;18.574;2023-04-15T04:32:38;100952.16;;;10.87;71.82
57074;BME280;69035;54.392;18.574;2023-04-15T04:35:08;100946.03;;;10.85;72.74
57074;BME280;69035;54.392;18.574;2023-04-15T04:37:37;100945.16;;;10.86;71.97
57074;BME280;69035;54.392;18.574;2023-04-15T04:40:07;100943.38;;;10.91;72.06
57074;BME280;69035;54.392;18.574;2023-04-15T04:42:37;100939.84;;;10.90;71.89
57074;BME280;69035;54.392;18.574;2023-04-15T04:45:08;100937.16;;;10.95;72.15
57074;BME280;69035;54.392;18.574;2023-04-15T04:47:37;100952.06;;;10.97;72.06
57074;BME280;69035;54.392;18.574;2023-04-15T04:50:08;100950.31;;;10.99;72.10
57074;BME280;69035;54.392;18.574;2023-04-15T04:52:37;100948.50;;;11.02;71.83
57074;BME280;69035;54.392;18.574;2023-04-15T04:55:07;100955.53;;;11.01;71.36
57074;BME280;69035;54.392;18.574;2023-04-15T04:57:35;100951.22;;;10.95;72.17
57074;BME280;69035;54.392;18.574;2023-04-15T05:00:08;100964.28;;;11.03;72.29
57074;BME280;69035;54.392;18.574;2023-04-15T05:02:38;100959.84;;;11.10;71.53
57074;BME280;69035;54.392;18.574;2023-04-15T05:05:10;100959.03;;;11.03;72.40
57074;BME280;69035;54.392;18.574;2023-04-15T05:07:42;100959.94;;;10.99;72.51
57074;BME280;69035;54.392;18.574;2023-04-15T05:10:10;100964.31;;;11.00;72.73
57074;BME280;69035;54.392;18.574;2023-04-15T05:12:41;100959.03;;;11.03;71.92
57074;BME280;69035;54.392;18.574;2023-04-15T05:15:11;100963.47;;;10.95;72.54
57074;BME280;69035;54.392;18.574;2023-04-15T05:17:40;100960.84;;;10.98;72.63
57074;BME280;69035;54.392;18.574;2023-04-15T05:20:10;100966.09;;;10.98;72.70
57074;BME280;69035;54.392;18.574;2023-04-15T05:22:38;100966.13;;;10.90;73.10
57074;BME280;69035;54.392;18.574;2023-04-15T05:25:07;100956.53;;;10.89;71.90
57074;BME280;69035;54.392;18.574;2023-04-15T05:27:37;100961.72;;;10.95;72.21
57074;BME280;69035;54.392;18.574;2023-04-15T05:30:07;100965.16;;;11.01;72.79
57074;BME280;69035;54.392;18.574;2023-04-15T05:32:41;100968.72;;;10.99;71.44
57074;BME280;69035;54.392;18.574;2023-04-15T05:35:10;100968.72;;;10.98;71.55
57074;BME280;69035;54.392;18.574;2023-04-15T05:37:39;100969.53;;;11.03;72.49
57074;BME280;69035;54.392;18.574;2023-04-15T05:40:07;100970.31;;;11.14;71.48
57074;BME280;69035;54.392;18.574;2023-04-15T05:42:37;100971.16;;;11.16;71.24
57074;BME280;69035;54.392;18.574;2023-04-15T05:45:06;100967.66;;;11.18;71.18
57074;BME280;69035;54.392;18.574;2023-04-15T05:47:36;100967.59;;;11.24;71.62
57074;BME280;69035;54.392;18.574;2023-04-15T05:50:07;100964.09;;;11.23;71.47
57074;BME280;69035;54.392;18.574;2023-04-15T05:52:36;100958.72;;;11.31;71.33
57074;BME280;69035;54.392;18.574;2023-04-15T05:55:05;100959.59;;;11.34;71.18
57074;BME280;69035;54.392;18.574;2023-04-15T05:57:34;100962.25;;;11.30;71.32
57074;BME280;69035;54.392;18.574;2023-04-15T06:00:05;100965.75;;;11.32;71.08
57074;BME280;69035;54.392;18.574;2023-04-15T06:02:37;100963.09;;;11.35;71.22
57074;BME280;69035;54.392;18.574;2023-04-15T06:05:07;100970.09;;;11.36;71.44
57074;BME280;69035;54.392;18.574;2023-04-15T06:07:38;100971.78;;;11.43;70.92
57074;BME280;69035;54.392;18.574;2023-04-15T06:10:07;100966.47;;;11.48;70.83
57074;BME280;69035;54.392;18.574;2023-04-15T06:12:36;100966.44;;;11.49;70.38
57074;BME280;69035;54.392;18.574;2023-04-15T06:15:05;100967.22;;;11.58;70.47
57074;BME280;69035;54.392;18.574;2023-04-15T06:17:36;100966.31;;;11.60;70.84
57074;BME280;69035;54.392;18.574;2023-04-15T06:20:07;100967.16;;;11.62;69.85
57074;BME280;69035;54.392;18.574;2023-04-15T06:22:37;100967.19;;;11.61;69.80
57074;BME280;69035;54.392;18.574;2023-04-15T06:25:06;100975.09;;;11.61;69.82
57074;BME280;69035;54.392;18.574;2023-04-15T06:27:36;100971.53;;;11.63;69.98
57074;BME280;69035;54.392;18.574;2023-04-15T06:30:05;100976.72;;;11.71;69.75
57074;BME280;69035;54.392;18.574;2023-04-15T06:32:34;100975.06;;;11.62;69.28
57074;BME280;69035;54.392;18.574;2023-04-15T06:35:03;100985.47;;;11.72;69.20
57074;BME280;69035;54.392;18.574;2023-04-15T06:37:34;100989.84;;;11.74;69.63
57074;BME280;69035;54.392;18.574;2023-04-15T06:40:03;100983.63;;;11.80;69.47
57074;BME280;69035;54.392;18.574;2023-04-15T06:42:32;100982.75;;;11.78;68.85
57074;BME280;69035;54.392;18.574;2023-04-15T06:45:01;100991.53;;;11.81;68.68
57074;BME280;69035;54.392;18.574;2023-04-15T06:47:30;100983.63;;;11.81;68.58
57074;BME280;69035;54.392;18.574;2023-04-15T06:49:58;100987.13;;;11.82;68.47
57074;BME280;69035;54.392;18.574;2023-04-15T06:52:27;100986.25;;;11.81;68.58
57074;BME280;69035;54.392;18.574;2023-04-15T06:54:57;100987.97;;;11.85;67.91
57074;BME280;69035;54.392;18.574;2023-04-15T06:57:27;100987.03;;;11.91;68.58
57074;BME280;69035;54.392;18.574;2023-04-15T06:59:56;100997.50;;;11.97;68.12
57074;BME280;69035;54.392;18.574;2023-04-15T07:02:24;101000.97;;;11.99;68.29
57074;BME280;69035;54.392;18.574;2023-04-15T07:04:53;100998.38;;;11.96;67.67
57074;BME280;69035;54.392;18.574;2023-04-15T07:07:23;100993.91;;;12.05;67.60
57074;BME280;69035;54.392;18.574;2023-04-15T07:09:52;100995.50;;;12.15;67.55
57074;BME280;69035;54.392;18.574;2023-04-15T07:12:22;100997.09;;;12.28;67.43
57074;BME280;69035;54.392;18.574;2023-04-15T07:14:51;100997.91;;;12.33;67.09
57074;BME280;69035;54.392;18.574;2023-04-15T07:17:20;101002.09;;;12.47;66.51
57074;BME280;69035;54.392;18.574;2023-04-15T07:19:49;100999.38;;;12.51;65.91
57074;BME280;69035;54.392;18.574;2023-04-15T07:22:17;101000.91;;;12.66;66.00
57074;BME280;69035;54.392;18.574;2023-04-15T07:24:46;100998.06;;;12.80;65.85
57074;BME280;69035;54.392;18.574;2023-04-15T07:27:15;101001.38;;;12.91;65.33
57074;BME280;69035;54.392;18.574;2023-04-15T07:29:46;101007.31;;;13.04;64.84
57074;BME280;69035;54.392;18.574;2023-04-15T07:32:15;101002.81;;;13.11;65.05
57074;BME280;69035;54.392;18.574;2023-04-15T07:34:43;101001.00;;;13.15;64.74
57074;BME280;69035;54.392;18.574;2023-04-15T07:37:14;101009.03;;;13.07;64.69
57074;BME280;69035;54.392;18.574;2023-04-15T07:39:42;101004.59;;;13.09;64.38
57074;BME280;69035;54.392;18.574;2023-04-15T07:42:11;101001.00;;;13.15;64.36
57074;BME280;69035;54.392;18.574;2023-04-15T07:44:40;101005.25;;;13.22;63.98
57074;BME280;69035;54.392;18.574;2023-04-15T07:47:10;101006.09;;;13.25;64.05
57074;BME280;69035;54.392;18.574;2023-04-15T07:49:40;101011.38;;;13.25;63.66
57074;BME280;69035;54.392;18.574;2023-04-15T07:52:10;101009.63;;;13.24;63.97
57074;BME280;69035;54.392;18.574;2023-04-15T07:54:38;101010.47;;;13.25;63.89
57074;BME280;69035;54.392;18.574;2023-04-15T07:57:07;101014.03;;;13.24;63.78
57074;BME280;69035;54.392;18.574;2023-04-15T07:59:35;101001.66;;;13.28;63.58
57074;BME280;69035;54.392;18.574;2023-04-15T08:02:04;101005.22;;;13.27;63.24
57074;BME280;69035;54.392;18.574;2023-04-15T08:04:36;101006.00;;;13.30;63.02
57074;BME280;69035;54.392;18.574;2023-04-15T08:07:06;101008.53;;;13.38;63.17
57074;BME280;69035;54.392;18.574;2023-04-15T08:09:35;101013.81;;;13.38;63.10
57074;BME280;69035;54.392;18.574;2023-04-15T08:12:04;101012.72;;;13.48;62.88
57074;BME280;69035;54.392;18.574;2023-04-15T08:14:36;101008.97;;;13.63;62.43
57074;BME280;69035;54.392;18.574;2023-04-15T08:17:05;101011.47;;;13.69;62.25
57074;BME280;69035;54.392;18.574;2023-04-15T08:19:33;101006.00;;;13.78;62.28
57074;BME280;69035;54.392;18.574;2023-04-15T08:22:05;101005.84;;;13.86;61.70
57074;BME280;69035;54.392;18.574;2023-04-15T08:24:43;101004.78;;;13.95;61.87
57074;BME280;69035;54.392;18.574;2023-04-15T08:27:13;101001.81;;;14.10;61.11
57074;BME280;69035;54.392;18.574;2023-04-15T08:29:41;101001.63;;;14.18;60.90
57074;BME280;69035;54.392;18.574;2023-04-15T08:32:11;101005.72;;;14.33;60.59
57074;BME280;69035;54.392;18.574;2023-04-15T08:34:41;101010.06;;;14.36;59.86
57074;BME280;69035;54.392;18.574;2023-04-15T08:37:11;101005.13;;;14.20;60.04
57074;BME280;69035;54.392;18.574;2023-04-15T08:39:40;101016.69;;;14.15;60.65
57074;BME280;69035;54.392;18.574;2023-04-15T08:42:11;101012.66;;;13.98;61.07
57074;BME280;69035;54.392;18.574;2023-04-15T08:44:45;101006.56;;;13.94;61.12
57074;BME280;69035;54.392;18.574;2023-04-15T08:47:17;101011.78;;;13.96;61.04
57074;BME280;69035;54.392;18.574;2023-04-15T08:49:47;100999.38;;;14.01;60.78
57074;BME280;69035;54.392;18.574;2023-04-15T08:52:23;101016.84;;;14.08;60.99
57074;BME280;69035;54.392;18.574;2023-04-15T08:54:56;101018.75;;;14.00;60.52
57074;BME280;69035;54.392;18.574;2023-04-15T08:57:27;101015.28;;;13.98;61.18
57074;BME280;69035;54.392;18.574;2023-04-15T08:59:56;101020.63;;;13.97;61.27
57074;BME280;69035;54.392;18.574;2023-04-15T09:02:25;101019.69;;;13.98;61.35
57074;BME280;69035;54.392;18.574;2023-04-15T09:04:56;101017.22;;;13.90;61.11
57074;BME280;69035;54.392;18.574;2023-04-15T09:07:26;101015.72;;;13.76;61.25
57074;BME280;69035;54.392;18.574;2023-04-15T09:09:55;101017.84;;;13.59;61.70
57074;BME280;69035;54.392;18.574;2023-04-15T09:12:24;101008.44;;;13.42;61.92
57074;BME280;69035;54.392;18.574;2023-04-15T09:14:52;101018.94;;;13.47;62.34
57074;BME280;69035;54.392;18.574;2023-04-15T09:17:21;101016.44;;;13.38;62.39
57074;BME280;69035;54.392;18.574;2023-04-15T09:20:07;101027.34;;;13.18;62.51
57074;BME280;69035;54.392;18.574;2023-04-15T09:22:38;101024.03;;;13.06;62.88
57074;BME280;69035;54.392;18.574;2023-04-15T09:25:28;101029.44;;;12.97;63.25
57074;BME280;69035;54.392;18.574;2023-04-15T09:28:01;101031.22;;;12.97;63.20
57074;BME280;69035;54.392;18.574;2023-04-15T09:30:29;101024.25;;;12.91;63.41
57074;BME280;69035;54.392;18.574;2023-04-15T09:33:00;101020.66;;;12.97;63.94
57074;BME280;69035;54.392;18.574;2023-04-15T09:35:37;101024.28;;;12.89;63.45
57074;BME280;69035;54.392;18.574;2023-04-15T09:38:08;101027.84;;;12.87;63.84
57074;BME280;69035;54.392;18.574;2023-04-15T09:40:38;101025.28;;;12.82;63.64
57074;BME280;69035;54.392;18.574;2023-04-15T09:43:08;101019.09;;;12.85;63.74
57074;BME280;69035;54.392;18.574;2023-04-15T09:45:46;101031.25;;;12.94;64.03
57074;BME280;69035;54.392;18.574;2023-04-15T09:48:17;101027.69;;;12.98;63.48
57074;BME280;69035;54.392;18.574;2023-04-15T09:50:47;100984.06;;;12.75;63.11
57074;BME280;69035;54.392;18.574;2023-04-15T09:53:19;101027.44;;;13.12;63.51
57074;BME280;69035;54.392;18.574;2023-04-15T09:55:52;101023.84;;;13.16;63.05
57074;BME280;69035;54.392;18.574;2023-04-15T09:58:23;101015.00;;;13.20;63.33
57074;BME280;69035;54.392;18.574;2023-04-15T10:00:54;101031.50;;;13.31;62.79
57074;BME280;69035;54.392;18.574;2023-04-15T10:03:25;101028.97;;;13.25;62.95
57074;BME280;69035;54.392;18.574;2023-04-15T10:05:56;101027.03;;;13.36;63.33
57074;BME280;69035;54.392;18.574;2023-04-15T10:08:28;101033.28;;;13.29;62.68
57074;BME280;69035;54.392;18.574;2023-04-15T10:10:57;101040.59;;;13.13;62.79
57074;BME280;69035;54.392;18.574;2023-04-15T10:13:29;101040.91;;;12.96;63.24
57074;BME280;69035;54.392;18.574;2023-04-15T10:16:01;101037.41;;;12.94;63.66
57074;BME280;69035;54.392;18.574;2023-04-15T10:18:34;101043.59;;;12.93;63.65
57074;BME280;69035;54.392;18.574;2023-04-15T10:21:03;101047.16;;;12.90;63.49
57074;BME280;69035;54.392;18.574;2023-04-15T10:23:35;101041.91;;;12.87;63.80
57074;BME280;69035;54.392;18.574;2023-04-15T10:26:04;101040.25;;;12.82;64.01
57074;BME280;69035;54.392;18.574;2023-04-15T10:28:33;101043.72;;;12.84;64.43
57074;BME280;69035;54.392;18.574;2023-04-15T10:31:04;101036.66;;;12.87;64.13
57074;BME280;69035;54.392;18.574;2023-04-15T10:33:34;101038.31;;;12.93;64.31
57074;BME280;69035;54.392;18.574;2023-04-15T10:36:03;101039.38;;;12.80;64.34
57074;BME280;69035;54.392;18.574;2023-04-15T10:38:39;101035.72;;;12.88;64.47
57074;BME280;69035;54.392;18.574;2023-04-15T10:41:17;101041.84;;;12.92;64.17
57074;BME280;69035;54.392;18.574;2023-04-15T10:43:49;101038.25;;;12.98;63.58
57074;BME280;69035;54.392;18.574;2023-04-15T10:46:21;101040.69;;;13.08;63.61
57074;BME280;69035;54.392;18.574;2023-04-15T10:48:51;101036.13;;;13.18;63.93
57074;BME280;69035;54.392;18.574;2023-04-15T10:51:27;101039.75;;;13.13;62.61
57074;BME280;69035;54.392;18.574;2023-04-15T10:53:58;101040.72;;;13.07;63.64
57074;BME280;69035;54.392;18.574;2023-04-15T10:56:28;101041.56;;;13.07;63.37
57074;BME280;69035;54.392;18.574;2023-04-15T10:58:59;101044.19;;;13.09;63.37
57074;BME280;69035;54.392;18.574;2023-04-15T11:01:49;101044.16;;;13.12;63.26
57074;BME280;69035;54.392;18.574;2023-04-15T11:04:52;101045.06;;;13.10;63.16
57074;BME280;69035;54.392;18.574;2023-04-15T11:07:38;101035.19;;;13.22;63.31
57074;BME280;69035;54.392;18.574;2023-04-15T11:13:27;101042.94;;;13.32;62.93
57074;BME280;69035;54.392;18.574;2023-04-15T11:15:58;101041.16;;;13.35;62.67
57074;BME280;69035;54.392;18.574;2023-04-15T11:18:30;101035.00;;;13.35;62.72
57074;BME280;69035;54.392;18.574;2023-04-15T11:21:01;101030.53;;;13.38;62.62
57074;BME280;69035;54.392;18.574;2023-04-15T11:23:35;101033.00;;;13.48;62.73
57074;BME280;69035;54.392;18.574;2023-04-15T11:26:06;101037.28;;;13.55;62.36
57074;BME280;69035;54.392;18.574;2023-04-15T11:28:38;101039.56;;;13.73;62.43
57074;BME280;69035;54.392;18.574;2023-04-15T11:31:10;101037.31;;;13.97;61.86
57074;BME280;69035;54.392;18.574;2023-04-15T11:33:46;101047.47;;;14.19;61.46
57074;BME280;69035;54.392;18.574;2023-04-15T11:36:15;101043.50;;;14.38;60.71
57074;BME280;69035;54.392;18.574;2023-04-15T11:38:45;101046.84;;;14.46;60.04
57074;BME280;69035;54.392;18.574;2023-04-15T11:41:19;101040.63;;;14.49;60.51
57074;BME280;69035;54.392;18.574;2023-04-15T11:43:50;101041.47;;;14.51;59.87
57074;BME280;69035;54.392;18.574;2023-04-15T11:46:20;101055.47;;;14.56;60.07
57074;BME280;69035;54.392;18.574;2023-04-15T11:48:48;101052.81;;;14.56;60.26
57074;BME280;69035;54.392;18.574;2023-04-15T11:51:18;101052.19;;;14.45;60.07
57074;BME280;69035;54.392;18.574;2023-04-15T11:53:48;101056.78;;;14.35;59.98
57074;BME280;69035;54.392;18.574;2023-04-15T11:56:19;101054.69;;;14.51;60.45
57074;BME280;69035;54.392;18.574;2023-04-15T11:58:51;101055.53;;;14.52;59.60
57074;BME280;69035;54.392;18.574;2023-04-15T12:01:30;101049.25;;;14.57;59.73
57074;BME280;69035;54.392;18.574;2023-04-15T12:03:58;101059.59;;;14.70;59.42
57074;BME280;69035;54.392;18.574;2023-04-15T12:06:31;101062.69;;;14.89;59.75
57074;BME280;69035;54.392;18.574;2023-04-15T12:09:07;101060.44;;;15.08;58.46
57074;BME280;69035;54.392;18.574;2023-04-15T12:11:41;101059.22;;;15.56;57.83
57074;BME280;69035;54.392;18.574;2023-04-15T12:14:19;101059.72;;;16.03;57.03
57074;BME280;69035;54.392;18.574;2023-04-15T12:16:50;101061.28;;;16.40;56.77
57074;BME280;69035;54.392;18.574;2023-04-15T12:19:24;101071.91;;;16.68;55.64
57074;BME280;69035;54.392;18.574;2023-04-15T12:21:58;101062.31;;;16.64;55.12
57074;BME280;69035;54.392;18.574;2023-04-15T12:24:30;101059.75;;;16.61;55.04
57074;BME280;69035;54.392;18.574;2023-04-15T12:27:02;101039.78;;;16.49;54.97
57074;BME280;69035;54.392;18.574;2023-04-15T12:29:33;101064.00;;;16.38;54.84
57074;BME280;69035;54.392;18.574;2023-04-15T12:32:07;101066.19;;;16.24;55.15
57074;BME280;69035;54.392;18.574;2023-04-15T12:34:37;101064.38;;;15.95;55.86
57074;BME280;69035;54.392;18.574;2023-04-15T12:37:08;101077.09;;;15.82;56.14
57074;BME280;69035;54.392;18.574;2023-04-15T12:39:38;101073.84;;;15.71;56.81
57074;BME280;69035;54.392;18.574;2023-04-15T12:42:09;101078.75;;;15.51;57.24
57074;BME280;69035;54.392;18.574;2023-04-15T12:44:39;101084.84;;;15.21;57.18
57074;BME280;69035;54.392;18.574;2023-04-15T12:47:09;101093.22;;;15.02;57.66
57074;BME280;69035;54.392;18.574;2023-04-15T12:49:37;101093.84;;;14.76;58.09
57074;BME280;69035;54.392;18.574;2023-04-15T12:52:07;101098.38;;;14.69;58.83
57074;BME280;69035;54.392;18.574;2023-04-15T12:54:36;101101.22;;;14.60;58.80
57074;BME280;69035;54.392;18.574;2023-04-15T12:57:05;101086.72;;;14.36;59.03
57074;BME280;69035;54.392;18.574;2023-04-15T12:59:34;101096.50;;;14.34;59.52
57074;BME280;69035;54.392;18.574;2023-04-15T13:02:04;101093.94;;;14.29;59.76
57074;BME280;69035;54.392;18.574;2023-04-15T13:04:33;101087.97;;;14.19;60.08